Time;durP1;ratioP1;P1;durP2;ratioP2;P2;SDS_P1;SDS_P2;PMS_P1;PMS_P2;Temp;Humidity;BMP_temperature;BMP_pressure;BME280_temperature;BME280_humidity;BME280_pressure;Samples;Min_cycle;Max_cycle;Signal;HPM_P1;HPM_P2
2022/08/24 04:06:21;;;;;;;12.37;10.85;;;;;;;20.74;87.14;100451.78;5606627;31;78947;-57
2022/08/24 04:09:24;;;;;;;12.05;10.07;;;;;;;20.74;87.14;100451.78;5584018;32;33541;-57
2022/08/24 04:12:30;;;;;;;;;;;;;;;20.27;89.24;100448.84;5584363;31;33389;-56
2022/08/24 04:15:32;;;;;;;13.77;10.13;;;;;;;20.29;88.67;100458.22;5583866;31;33910;-56
2022/08/24 04:18:38;;;;;;;14.35;9.30;;;;;;;20.34;88.90;100457.22;5583722;32;33612;-57
2022/08/24 04:21:43;;;;;;;10.75;9.65;;;;;;;20.37;88.47;100449.16;5583503;31;33587;-57
2022/08/24 04:24:45;;;;;;;11.35;9.32;;;;;;;20.35;88.58;100456.84;5583562;31;33210;-57
2022/08/24 04:27:48;;;;;;;9.90;8.90;;;;;;;20.38;88.30;100449.94;5583965;31;34206;-57
2022/08/24 04:30:50;;;;;;;10.60;9.50;;;;;;;20.50;88.43;100444.47;5583450;31;33142;-57
2022/08/24 04:33:53;;;;;;;11.48;9.20;;;;;;;20.61;87.41;100444.78;5583748;31;33247;-57
2022/08/24 04:36:55;;;;;;;10.35;9.35;;;;;;;20.55;87.92;100444.22;5583538;31;34211;-56
2022/08/24 04:39:57;;;;;;;9.75;8.77;;;;;;;20.72;87.21;100448.59;5583691;31;33260;-57
2022/08/24 04:43:00;;;;;;;9.20;8.20;;;;;;;20.71;87.55;100443.50;5583380;31;33249;-57
2022/08/24 04:46:06;;;;;;;9.50;8.05;;;;;;;20.65;87.51;100448.41;5579711;31;34346;-57
2022/08/24 04:49:08;;;;;;;10.23;7.50;;;;;;;20.69;87.91;100451.22;5570481;32;34277;-56
2022/08/24 04:52:11;;;;;;;9.75;6.82;;;;;;;20.78;87.76;100449.16;5579845;32;33282;-57
2022/08/24 04:55:15;;;;;;;9.73;7.25;;;;;;;20.82;87.90;100453.53;5582260;31;33173;-57
2022/08/24 04:58:18;;;;;;;8.10;7.30;;;;;;;20.79;87.29;100440.59;5581839;31;34354;-57
2022/08/24 05:01:26;;;;;;;9.02;6.75;;;;;;;21.01;85.70;100441.19;5576123;32;33489;-57
2022/08/24 05:04:28;;;;;;;7.97;6.62;;;;;;;20.99;85.92;100438.84;5578400;31;33374;-57
2022/08/24 05:07:32;;;;;;;8.82;7.07;;;;;;;21.01;85.27;100439.25;5580451;31;34501;-57
2022/08/24 05:10:37;;;;;;;11.55;8.40;;;;;;;21.06;86.00;100446.41;5581017;31;33807;-57
2022/08/24 05:13:40;;;;;;;10.40;7.85;;;;;;;21.16;85.04;100451.34;5580493;31;34288;-57
2022/08/24 05:16:42;;;;;;;11.32;8.20;;;;;;;21.18;84.61;100446.31;5571258;32;33670;-57
2022/08/24 05:19:53;;;;;;;12.02;8.63;;;;;;;21.05;84.78;100445.59;5568978;32;34090;-56
2022/08/24 05:22:56;;;;;;;11.12;8.05;;;;;;;21.15;84.98;100448.97;5568037;32;33702;-56
2022/08/24 05:26:15;;;;;;;8.63;7.20;;;;;;;21.20;85.31;100446.00;5559527;32;33480;-56
2022/08/24 05:29:18;;;;;;;7.65;6.57;;;;;;;21.28;84.25;100456.72;5566130;31;33399;-56
2022/08/24 05:32:21;;;;;;;9.40;6.50;;;;;;;21.38;83.28;100455.44;5569006;32;31962;-57
2022/08/24 05:35:24;;;;;;;7.10;6.07;;;;;;;21.52;83.12;100446.81;5566458;31;34109;-57
2022/08/24 05:38:26;;;;;;;8.25;7.20;;;;;;;21.54;83.12;100456.22;5566790;31;33355;-55
2022/08/24 05:41:29;;;;;;;6.62;5.90;;;;;;;21.62;82.70;100443.53;5564782;32;34385;-54
2022/08/24 05:44:32;;;;;;;8.10;5.87;;;;;;;21.76;81.74;100451.28;5568154;31;33345;-54
2022/08/24 05:47:36;;;;;;;13.95;6.65;;;;;;;21.81;83.94;100451.00;5568641;32;33265;-54
2022/08/24 05:50:39;;;;;;;8.38;6.43;;;;;;;21.89;82.80;100455.50;5561655;32;33364;-54
2022/08/24 05:53:43;;;;;;;9.43;6.20;;;;;;;22.05;83.04;100448.09;5561459;31;33170;-54
2022/08/24 05:56:46;;;;;;;9.40;5.87;;;;;;;22.18;80.75;100445.25;5563463;31;32724;-55
2022/08/24 05:59:52;;;;;;;8.18;6.00;;;;;;;22.27;80.37;100440.37;5563463;32;33084;-54
2022/08/24 06:02:55;;;;;;;7.28;5.95;;;;;;;22.46;79.78;100445.06;5568421;32;33599;-54
2022/08/24 06:05:57;;;;;;;8.60;5.57;;;;;;;22.50;77.97;100446.72;5568451;32;33715;-54
2022/08/24 06:09:00;;;;;;;10.85;6.43;;;;;;;22.62;77.65;100440.31;5566433;32;34508;-54
2022/08/24 06:12:05;;;;;;;10.95;6.55;;;;;;;22.64;78.81;100442.69;5561633;31;31695;-54
2022/08/24 06:15:08;;;;;;;13.35;5.78;;;;;;;22.65;78.08;100445.06;5566974;31;33545;-55
2022/08/24 06:18:11;;;;;;;7.70;5.68;;;;;;;22.81;78.08;100446.91;5566169;31;33228;-54
2022/08/24 06:21:18;;;;;;;10.23;6.43;;;;;;;22.92;77.33;100437.78;5567847;31;33535;-54
2022/08/24 06:27:47;;;;;;;;;;;;;;;22.91;76.67;100441.66;5547279;32;34464;-54
2022/08/24 06:31:01;;;;;;;11.82;6.40;;;;;;;22.96;76.93;100441.38;5567809;32;32092;-54
2022/08/24 06:34:04;;;;;;;13.15;6.68;;;;;;;23.02;76.46;100449.31;5562296;31;33100;-54
2022/08/24 06:37:08;;;;;;;9.10;6.22;;;;;;;23.13;75.72;100461.22;5567145;31;32081;-55
2022/08/24 06:40:12;;;;;;;9.13;6.47;;;;;;;23.04;75.58;100453.25;5567306;31;33361;-55
2022/08/24 06:43:16;;;;;;;13.23;6.28;;;;;;;23.12;74.73;100452.22;5568235;32;34029;-54
2022/08/24 06:46:25;;;;;;;13.20;6.25;;;;;;;23.15;75.58;100458.91;5569012;32;33740;-54
2022/08/24 06:49:36;;;;;;;124.35;14.35;;;;;;;23.27;75.63;100464.19;5568200;32;33811;-54
2022/08/24 06:52:40;;;;;;;55.95;10.35;;;;;;;23.38;75.69;100467.16;5568009;31;32651;-54
2022/08/24 06:55:57;;;;;;;9.57;5.93;;;;;;;23.49;74.87;100464.56;5565548;31;32224;-54
2022/08/24 06:59:06;;;;;;;9.52;5.72;;;;;;;23.52;74.68;100472.06;5567406;32;31894;-54
2022/08/24 07:02:11;;;;;;;10.90;6.25;;;;;;;23.63;74.22;100476.53;5566045;32;33650;-54
2022/08/24 07:05:14;;;;;;;10.93;5.90;;;;;;;23.79;73.01;100481.13;5568351;31;34127;-54
2022/08/24 07:08:20;;;;;;;19.42;7.03;;;;;;;23.75;73.06;100481.06;5565223;32;33393;-55
2022/08/24 07:11:23;;;;;;;13.23;6.18;;;;;;;23.68;73.61;100479.00;5562848;32;34251;-54
2022/08/24 07:14:26;;;;;;;9.43;6.10;;;;;;;23.66;73.17;100486.75;5567820;32;33573;-55
2022/08/24 07:17:29;;;;;;;12.52;6.35;;;;;;;23.57;73.17;100482.69;5568705;31;33345;-54
2022/08/24 07:20:31;;;;;;;10.25;6.28;;;;;;;23.62;72.50;100490.59;5566360;32;34448;-54
2022/08/24 07:23:36;;;;;;;12.40;6.80;;;;;;;23.48;73.40;100496.62;5566275;31;33304;-54
2022/08/24 07:26:44;;;;;;;10.95;6.20;;;;;;;23.47;74.00;100505.19;5566062;32;33606;-54
2022/08/24 07:29:47;;;;;;;14.98;6.50;;;;;;;23.44;73.84;100504.78;5566147;32;33129;-54
2022/08/24 07:33:11;;;;;;;10.00;6.93;;;;;;;23.41;74.96;100504.69;5566466;32;33233;-54
2022/08/24 07:36:16;;;;;;;11.12;6.53;;;;;;;23.47;74.57;100511.44;5565843;31;33043;-54
2022/08/24 07:39:24;;;;;;;44.33;7.57;;;;;;;23.53;74.82;100509.19;5562712;31;33330;-54
2022/08/24 07:42:29;;;;;;;13.35;7.30;;;;;;;23.53;75.19;100507.25;5566648;32;31780;-54
2022/08/24 07:45:36;;;;;;;19.08;7.55;;;;;;;23.60;74.37;100512.84;5567036;31;31689;-54
2022/08/24 07:48:42;;;;;;;10.90;6.87;;;;;;;23.69;74.62;100515.37;5565547;31;34186;-54
2022/08/24 07:51:45;;;;;;;19.87;6.18;;;;;;;23.76;75.14;100522.91;5566674;31;31770;-54
2022/08/24 07:54:48;;;;;;;354.15;29.12;;;;;;;23.84;73.88;100524.59;5565441;32;33781;-54
2022/08/24 07:57:51;;;;;;;59.95;9.35;;;;;;;23.87;73.58;100513.72;5565396;31;33282;-54
2022/08/24 08:00:54;;;;;;;22.00;7.45;;;;;;;23.98;73.42;100516.62;5567653;31;33219;-54
2022/08/24 08:03:57;;;;;;;27.33;6.82;;;;;;;24.00;72.80;100524.47;5567568;31;33616;-55
2022/08/24 08:07:02;;;;;;;9.75;6.22;;;;;;;24.11;72.36;100520.75;5565812;32;33619;-55
2022/08/24 08:10:05;;;;;;;;;;;;;;;24.18;71.38;100522.00;5567965;31;33322;-54
2022/08/24 08:13:08;;;;;;;9.60;5.60;;;;;;;24.13;70.55;100528.56;5565253;31;33404;-54
2022/08/24 08:16:12;;;;;;;18.08;5.43;;;;;;;24.22;70.76;100529.09;5566095;32;33444;-54
2022/08/24 08:19:15;;;;;;;146.23;13.00;;;;;;;24.17;70.05;100523.16;5562666;32;33342;-55
2022/08/24 08:25:53;;;;;;;64.95;7.37;;;;;;;24.23;71.11;100519.72;5565824;32;33327;-54
2022/08/24 08:28:57;;;;;;;8.85;5.03;;;;;;;24.30;71.07;100527.25;5567384;31;33337;-54
2022/08/24 08:31:59;;;;;;;8.88;5.05;;;;;;;24.35;69.36;100519.50;5562707;32;33697;-55
2022/08/24 08:35:02;;;;;;;15.30;5.55;;;;;;;24.37;70.44;100530.91;5565457;31;33275;-54
2022/08/24 08:38:06;;;;;;;11.88;5.45;;;;;;;24.53;70.56;100529.94;5563954;32;33703;-55
2022/08/24 08:41:16;;;;;;;8.30;5.00;;;;;;;24.54;70.53;100534.28;5564947;32;33667;-54
2022/08/24 08:45:06;;;;;;;12.43;6.15;;;;;;;24.58;70.29;100529.63;5563371;31;33320;-55
2022/08/24 08:48:34;;;;;;;10.13;5.20;;;;;;;24.70;69.60;100523.94;5543018;32;33239;-54
2022/08/24 08:51:58;;;;;;;12.75;4.68;;;;;;;24.78;69.40;100525.59;5565252;31;33188;-54
2022/08/24 08:55:13;;;;;;;13.07;4.35;;;;;;;24.93;67.39;100534.75;5566860;32;33167;-54
2022/08/24 08:58:38;;;;;;;13.48;4.50;;;;;;;24.94;66.29;100530.88;5561867;32;33439;-55
2022/08/24 09:02:19;;;;;;;8.15;4.37;;;;;;;25.06;66.34;100516.88;5563490;32;33627;-54
2022/08/24 09:05:28;;;;;;;13.75;4.90;;;;;;;25.21;63.85;100530.81;5566234;31;32911;-55
2022/08/24 09:09:00;;;;;;;11.90;5.40;;;;;;;25.26;65.30;100530.44;5568180;32;33540;-54
2022/08/24 09:12:11;;;;;;;15.85;5.00;;;;;;;25.26;64.07;100531.22;5569057;32;34175;-55
2022/08/24 09:15:14;;;;;;;10.75;4.95;;;;;;;25.26;63.91;100525.75;5569145;32;33086;-54
2022/08/24 09:18:55;;;;;;;15.75;4.78;;;;;;;25.28;65.25;100533.62;5567386;32;33416;-54
2022/08/24 09:22:14;;;;;;;10.63;5.28;;;;;;;25.34;63.73;100529.38;5562779;32;33485;-55
2022/08/24 09:25:38;;;;;;;15.82;5.68;;;;;;;25.38;64.23;100530.19;5569256;32;33510;-54
2022/08/24 09:28:48;;;;;;;24.08;6.20;;;;;;;25.47;63.96;100525.19;5567924;31;33266;-54
2022/08/24 09:32:14;;;;;;;10.88;4.95;;;;;;;25.50;65.59;100518.94;5566766;32;33719;-54
2022/08/24 09:35:44;;;;;;;17.73;5.32;;;;;;;25.65;63.87;100521.81;5568507;32;33728;-54
2022/08/24 09:38:58;;;;;;;8.90;4.97;;;;;;;25.70;63.59;100510.50;5566589;32;33835;-55
2022/08/24 09:42:21;;;;;;;13.02;5.05;;;;;;;25.66;62.18;100507.72;5567324;32;34315;-55
2022/08/24 09:45:53;;;;;;;12.12;5.23;;;;;;;25.69;62.99;100511.63;5566133;32;33787;-55
2022/08/24 09:49:17;;;;;;;13.38;6.00;;;;;;;25.69;63.27;100508.91;5567891;32;34437;-54
2022/08/24 09:52:57;;;;;;;11.73;5.00;;;;;;;25.70;62.30;100510.50;5561057;32;33827;-55
2022/08/24 09:56:18;;;;;;;9.18;4.75;;;;;;;25.77;60.84;100511.34;5567311;32;33678;-54
2022/08/24 09:59:35;;;;;;;11.43;4.82;;;;;;;25.79;58.20;100494.47;5568407;32;33821;-54
2022/08/24 10:02:58;;;;;;;9.98;4.85;;;;;;;25.88;59.93;100497.69;5567079;32;33758;-55
2022/08/24 10:06:15;;;;;;;12.45;5.40;;;;;;;26.00;59.54;100491.91;5568614;32;33748;-54
2022/08/24 10:09:36;;;;;;;9.45;5.05;;;;;;;26.10;60.26;100495.13;5561949;32;33748;-54
2022/08/24 10:13:03;;;;;;;12.23;5.82;;;;;;;26.15;61.34;100498.28;5565212;32;33745;-55
2022/08/24 10:16:15;;;;;;;12.43;5.65;;;;;;;26.14;60.39;100496.72;5566380;32;33636;-55
2022/08/24 10:19:46;;;;;;;13.10;6.03;;;;;;;26.09;60.05;100499.78;5561067;32;33659;-54
2022/08/24 10:23:26;;;;;;;13.18;6.03;;;;;;;26.10;61.04;100501.41;5565047;32;33614;-54
2022/08/24 10:26:57;;;;;;;14.27;6.40;;;;;;;26.02;61.15;100500.53;5567949;32;33733;-55
2022/08/24 10:30:33;;;;;;;12.25;6.00;;;;;;;26.02;60.89;100491.50;5566675;32;33808;-54
2022/08/24 10:34:09;;;;;;;9.13;5.78;;;;;;;25.99;61.71;100500.53;5562129;32;34344;-54
2022/08/24 10:37:46;;;;;;;13.43;5.93;;;;;;;25.99;61.73;100511.50;5567849;32;34331;-55
2022/08/24 10:41:05;;;;;;;11.57;6.05;;;;;;;25.96;62.77;100509.53;5561381;32;33686;-55
2022/08/24 10:44:27;;;;;;;13.95;6.53;;;;;;;25.99;61.25;100500.53;5550768;32;33613;-54
2022/08/24 10:47:35;;;;;;;18.33;6.62;;;;;;;26.01;61.21;100500.94;5551732;32;34435;-54
2022/08/24 10:50:56;;;;;;;15.93;7.62;;;;;;;25.95;62.47;100500.50;5558370;31;34308;-54
2022/08/24 10:53:59;;;;;;;20.62;9.00;;;;;;;25.93;63.13;100499.31;5561874;32;34458;-54
2022/08/24 10:57:06;;;;;;;23.83;9.10;;;;;;;25.93;65.49;100505.59;5568444;32;34290;-54
2022/08/24 11:00:18;;;;;;;20.33;7.78;;;;;;;25.92;63.11;100498.50;5564617;32;33694;-54
2022/08/24 11:03:25;;;;;;;20.48;9.75;;;;;;;25.94;63.75;100503.62;5549810;32;33735;-54
2022/08/24 11:07:06;;;;;;;19.77;9.68;;;;;;;25.90;64.31;100505.56;5559466;32;33705;-54
2022/08/24 11:10:08;;;;;;;23.00;9.50;;;;;;;25.93;64.55;100510.31;5555133;32;33780;-54
2022/08/24 11:13:24;;;;;;;20.30;9.90;;;;;;;25.90;64.76;100506.38;5568467;32;33586;-54
2022/08/24 11:16:38;;;;;;;17.73;9.38;;;;;;;25.88;65.79;100502.41;5562097;32;34420;-55
2022/08/24 11:19:42;;;;;;;19.30;9.75;;;;;;;25.95;65.98;100499.72;5536435;32;32184;-54
2022/08/24 11:23:06;;;;;;;19.17;9.40;;;;;;;25.96;65.52;100504.03;5551328;32;34656;-54
2022/08/24 11:26:19;;;;;;;19.77;10.03;;;;;;;26.04;63.76;100510.38;5564815;32;34347;-54
2022/08/24 11:29:30;;;;;;;16.42;9.50;;;;;;;26.04;63.91;100504.87;5569094;32;34298;-54
2022/08/24 11:32:45;;;;;;;18.87;10.10;;;;;;;26.02;64.29;100511.53;5561721;32;34452;-54
2022/08/24 11:35:47;;;;;;;;;;;;;;;26.04;64.90;100507.63;5568010;32;33752;-55
2022/08/24 11:39:08;;;;;;;22.37;10.35;;;;;;;26.08;64.52;100511.19;5569008;32;34190;-54
2022/08/24 11:42:34;;;;;;;22.55;9.55;;;;;;;25.99;65.63;100514.25;5568966;32;33794;-55
2022/08/24 11:46:02;;;;;;;17.92;9.43;;;;;;;25.97;67.25;100522.09;5568792;32;33648;-54
2022/08/24 11:49:20;;;;;;;19.67;9.73;;;;;;;25.78;69.60;100520.34;5568808;32;33650;-54
2022/08/24 11:52:50;;;;;;;13.95;8.88;;;;;;;25.59;71.06;100524.09;5568900;32;33663;-54
2022/08/24 11:56:28;;;;;;;16.23;9.57;;;;;;;25.25;72.77;100526.94;5568972;32;34253;-54
2022/08/24 11:59:53;;;;;;;26.92;9.15;;;;;;;25.07;74.10;100528.69;5544420;31;33605;-54
2022/08/24 12:03:37;;;;;;;17.62;8.85;;;;;;;25.02;75.11;100529.00;5568764;32;33817;-55
2022/08/24 12:06:45;;;;;;;17.00;8.60;;;;;;;25.02;75.31;100529.00;5560519;32;33761;-54
2022/08/24 12:10:11;;;;;;;16.10;8.98;;;;;;;25.08;76.30;100528.28;5568766;32;33624;-55
2022/08/24 12:13:37;;;;;;;23.60;9.57;;;;;;;25.11;76.26;100526.75;5568167;32;33664;-54
2022/08/24 12:17:07;;;;;;;14.87;8.63;;;;;;;25.22;75.45;100537.88;5568727;32;34279;-55
2022/08/24 12:20:31;;;;;;;15.98;9.23;;;;;;;25.19;75.06;100544.88;5568569;32;33625;-54
2022/08/24 12:23:42;;;;;;;17.55;8.75;;;;;;;25.20;74.00;100531.94;5568355;32;33725;-54
2022/08/24 12:26:48;;;;;;;19.02;9.38;;;;;;;25.24;73.34;100535.53;5569459;32;33814;-54
2022/08/24 12:30:02;;;;;;;13.32;8.60;;;;;;;25.32;73.00;100528.94;5570929;32;34334;-54
2022/08/24 12:33:13;;;;;;;17.12;8.40;;;;;;;25.43;73.72;100535.34;5570895;32;34340;-54
2022/08/24 12:36:27;;;;;;;16.08;8.93;;;;;;;25.54;71.46;100549.16;5570918;32;34209;-54
2022/08/24 12:39:45;;;;;;;12.90;8.27;;;;;;;25.49;70.26;100541.25;5570792;32;34450;-54
2022/08/24 12:43:16;;;;;;;13.27;9.07;;;;;;;25.42;72.67;100536.50;5570292;32;33682;-54
2022/08/24 12:46:22;;;;;;;15.02;8.85;;;;;;;25.34;73.48;100545.06;5570284;32;33354;-55
2022/08/24 12:49:37;;;;;;;12.23;8.38;;;;;;;25.26;73.45;100539.47;5570608;32;33395;-54
2022/08/24 12:53:03;;;;;;;12.98;8.57;;;;;;;25.26;73.42;100541.44;5570661;32;33743;-55
2022/08/24 12:56:19;;;;;;;15.48;8.65;;;;;;;25.22;73.22;100538.66;5570485;32;33665;-54
2022/08/24 12:59:28;;;;;;;13.27;8.63;;;;;;;25.17;75.09;100536.25;5570502;32;33667;-55
2022/08/24 13:02:40;;;;;;;15.10;8.30;;;;;;;25.17;74.69;100540.97;5570597;32;33843;-55
2022/08/24 13:05:56;;;;;;;16.23;8.32;;;;;;;25.20;75.46;100532.78;5570422;32;34370;-54
2022/08/24 13:09:07;;;;;;;19.83;9.73;;;;;;;25.17;74.46;100535.47;5570171;32;33625;-56
2022/08/24 13:12:32;;;;;;;22.80;10.07;;;;;;;25.12;78.59;100522.88;5570503;32;33748;-55
2022/08/24 13:15:34;;;;;;;13.57;9.57;;;;;;;25.03;85.03;100525.06;5570384;32;33310;-55
2022/08/24 13:18:50;;;;;;;13.13;9.57;;;;;;;24.82;84.91;100529.16;5570396;32;34344;-55
2022/08/24 13:21:59;;;;;;;19.30;10.27;;;;;;;24.67;86.14;100529.34;5570380;32;33638;-55
2022/08/24 13:25:20;;;;;;;15.95;9.75;;;;;;;24.64;87.79;100536.38;5570205;32;33669;-55
2022/08/24 13:28:23;;;;;;;16.25;9.30;;;;;;;24.56;87.53;100537.44;5570223;32;32042;-55
2022/08/24 13:31:37;;;;;;;14.35;9.30;;;;;;;24.53;88.56;100541.69;5570244;32;33733;-55
2022/08/24 13:34:44;;;;;;;15.18;9.45;;;;;;;24.55;90.34;100544.09;5570256;32;33878;-55
2022/08/24 13:38:25;;;;;;;12.70;9.52;;;;;;;24.49;90.92;100553.78;5570000;32;33980;-55
2022/08/24 13:42:01;;;;;;;16.52;10.57;;;;;;;24.41;92.83;100549.37;5570119;32;33676;-55
2022/08/24 13:45:31;;;;;;;14.02;10.50;;;;;;;24.33;93.00;100553.91;5570056;32;33708;-55
2022/08/24 13:48:46;;;;;;;17.58;11.12;;;;;;;24.24;95.81;100547.91;5569971;32;33634;-55
2022/08/24 13:52:09;;;;;;;15.27;11.57;;;;;;;24.22;99.71;100551.03;5570117;32;33793;-56
2022/08/24 13:55:34;;;;;;;13.77;10.52;;;;;;;24.22;100.00;100555.72;5569895;32;34184;-55
2022/08/24 13:59:00;;;;;;;14.48;10.82;;;;;;;24.27;100.00;100555.37;5569692;32;33647;-55
2022/08/24 14:02:06;;;;;;;;;;;;;;;24.28;100.00;100551.50;5570089;32;33305;-55
2022/08/24 14:05:30;;;;;;;15.85;10.63;;;;;;;24.23;100.00;100551.81;5569801;32;34181;-55
2022/08/24 14:08:43;;;;;;;17.30;11.65;;;;;;;24.31;97.95;100545.28;5569647;32;34397;-55
2022/08/24 14:12:15;;;;;;;15.63;11.70;;;;;;;24.31;100.00;100548.81;5569309;32;33730;-55
2022/08/24 14:17:50;;;;;;;21.23;12.35;;;;;;;24.33;100.00;100557.44;5568958;32;34315;-55
2022/08/24 14:19:24;;;;;;;17.25;12.32;;;;;;;24.38;100.00;100550.88;5569176;32;33967;-55
2022/08/24 14:22:31;;;;;;;15.05;10.73;;;;;;;24.38;100.00;100554.41;5569646;32;33594;-55
2022/08/24 14:25:35;;;;;;;12.52;9.90;;;;;;;24.32;100.00;100552.34;5569257;32;33782;-55
2022/08/24 14:28:40;;;;;;;17.02;11.43;;;;;;;24.40;96.37;100545.78;5569585;32;34345;-56
2022/08/24 14:31:52;;;;;;;17.27;11.25;;;;;;;24.31;92.15;100554.28;5568907;32;33638;-55
2022/08/24 14:35:26;;;;;;;16.75;11.75;;;;;;;24.38;92.19;100542.66;5569523;32;34311;-55
2022/08/24 14:38:48;;;;;;;18.80;13.05;;;;;;;24.30;95.56;100540.94;5514688;31;33864;-56
2022/08/24 14:41:57;;;;;;;18.30;13.32;;;;;;;24.21;98.49;100552.19;5569754;32;33745;-55
2022/08/24 14:45:20;;;;;;;16.67;13.48;;;;;;;24.19;100.00;100554.50;5569600;32;34426;-55
2022/08/24 14:48:34;;;;;;;18.45;13.88;;;;;;;24.26;100.00;100556.56;5568483;32;34266;-55
2022/08/24 14:51:53;;;;;;;19.95;13.95;;;;;;;24.27;100.00;100545.25;5569573;32;34359;-55
2022/08/24 14:55:17;;;;;;;19.85;14.10;;;;;;;24.26;100.00;100540.91;5568943;32;34323;-55
2022/08/24 14:58:25;;;;;;;16.15;13.35;;;;;;;24.30;100.00;100543.69;5569009;32;33657;-55
2022/08/24 15:01:40;;;;;;;20.27;14.00;;;;;;;24.34;100.00;100534.38;5569331;32;33717;-55
2022/08/24 15:04:51;;;;;;;21.00;14.52;;;;;;;24.34;100.00;100530.84;5568936;32;33755;-55
